sensor_id;sensor_type;location;lat;lon;timestamp;temperature;humidity
33955;DHT22;20233;50.804;7.126;2022-10-26T00:00:08;13.70;99.90
33955;DHT22;20233;50.804;7.126;2022-10-26T00:02:34;13.60;99.90
33955;DHT22;20233;50.804;7.126;2022-10-26T00:04:59;13.60;99.90
33955;DHT22;20233;50.804;7.126;2022-10-26T00:07:25;13.70;99.90
33955;DHT22;20233;50.804;7.126;2022-10-26T00:09:50;13.70;99.90
33955;DHT22;20233;50.804;7.126;2022-10-26T00:12:15;13.70;99.90
33955;DHT22;20233;50.804;7.126;2022-10-26T00:14:41;13.70;99.90
33955;DHT22;20233;50.804;7.126;2022-10-26T00:17:07;13.80;99.90
33955;DHT22;20233;50.804;7.126;2022-10-26T00:19:33;13.70;99.90
33955;DHT22;20233;50.804;7.126;2022-10-26T00:21:59;13.70;99.90
33955;DHT22;20233;50.804;7.126;2022-10-26T00:24:25;13.70;99.90
33955;DHT22;20233;50.804;7.126;2022-10-26T00:26:50;13.70;99.90
33955;DHT22;20233;50.804;7.126;2022-10-26T00:29:16;13.70;99.90
33955;DHT22;20233;50.804;7.126;2022-10-26T00:31:42;13.80;99.90
33955;DHT22;20233;50.804;7.126;2022-10-26T00:34:09;13.80;99.90
33955;DHT22;20233;50.804;7.126;2022-10-26T00:36:35;13.90;99.90
33955;DHT22;20233;50.804;7.126;2022-10-26T00:39:01;13.80;99.90
33955;DHT22;20233;50.804;7.126;2022-10-26T00:41:31;13.80;99.90
33955;DHT22;20233;50.804;7.126;2022-10-26T00:43:57;13.80;99.90
33955;DHT22;20233;50.804;7.126;2022-10-26T00:46:35;13.80;99.90
33955;DHT22;20233;50.804;7.126;2022-10-26T00:49:07;13.80;99.90
33955;DHT22;20233;50.804;7.126;2022-10-26T00:51:42;13.80;99.90
33955;DHT22;20233;50.804;7.126;2022-10-26T00:54:12;13.80;99.90
33955;DHT22;20233;50.804;7.126;2022-10-26T00:56:40;13.80;99.90
33955;DHT22;20233;50.804;7.126;2022-10-26T00:59:09;13.80;99.90
33955;DHT22;20233;50.804;7.126;2022-10-26T01:01:37;13.80;99.90
33955;DHT22;20233;50.804;7.126;2022-10-26T01:04:03;13.90;99.90
33955;DHT22;20233;50.804;7.126;2022-10-26T01:06:30;13.90;99.90
33955;DHT22;20233;50.804;7.126;2022-10-26T01:08:56;13.90;99.90
33955;DHT22;20233;50.804;7.126;2022-10-26T01:11:22;14.00;99.90
33955;DHT22;20233;50.804;7.126;2022-10-26T01:13:50;13.90;99.90
33955;DHT22;20233;50.804;7.126;2022-10-26T01:22:10;13.90;99.90
33955;DHT22;20233;50.804;7.126;2022-10-26T01:27:47;13.90;99.90
33955;DHT22;20233;50.804;7.126;2022-10-26T01:35:55;13.90;99.90
33955;DHT22;20233;50.804;7.126;2022-10-26T01:44:25;13.90;99.90
33955;DHT22;20233;50.804;7.126;2022-10-26T01:46:54;13.90;99.90
33955;DHT22;20233;50.804;7.126;2022-10-26T01:49:25;13.90;99.90
33955;DHT22;20233;50.804;7.126;2022-10-26T01:51:51;13.90;99.90
33955;DHT22;20233;50.804;7.126;2022-10-26T01:54:17;13.90;99.90
33955;DHT22;20233;50.804;7.126;2022-10-26T01:56:52;13.80;99.90
33955;DHT22;20233;50.804;7.126;2022-10-26T01:59:40;13.80;99.90
33955;DHT22;20233;50.804;7.126;2022-10-26T02:10:50;13.90;99.90
33955;DHT22;20233;50.804;7.126;2022-10-26T02:13:30;14.00;99.90
33955;DHT22;20233;50.804;7.126;2022-10-26T02:16:05;14.00;99.90
33955;DHT22;20233;50.804;7.126;2022-10-26T02:21:39;14.10;99.90
33955;DHT22;20233;50.804;7.126;2022-10-26T02:24:10;14.10;99.90
33955;DHT22;20233;50.804;7.126;2022-10-26T02:26:38;14.10;99.90
33955;DHT22;20233;50.804;7.126;2022-10-26T02:29:08;14.10;99.90
33955;DHT22;20233;50.804;7.126;2022-10-26T02:31:36;14.10;99.90
33955;DHT22;20233;50.804;7.126;2022-10-26T02:34:06;14.00;99.90
33955;DHT22;20233;50.804;7.126;2022-10-26T02:36:35;14.10;99.90
33955;DHT22;20233;50.804;7.126;2022-10-26T02:39:05;14.10;99.90
33955;DHT22;20233;50.804;7.126;2022-10-26T02:41:33;14.10;99.90
33955;DHT22;20233;50.804;7.126;2022-10-26T02:46:29;14.10;99.90
33955;DHT22;20233;50.804;7.126;2022-10-26T02:48:54;14.10;99.90
33955;DHT22;20233;50.804;7.126;2022-10-26T02:52:08;14.10;99.90
33955;DHT22;20233;50.804;7.126;2022-10-26T02:57:22;14.30;99.90
33955;DHT22;20233;50.804;7.126;2022-10-26T02:59:52;14.30;99.90
33955;DHT22;20233;50.804;7.126;2022-10-26T03:02:19;14.20;99.90
33955;DHT22;20233;50.804;7.126;2022-10-26T03:04:45;14.20;99.90
33955;DHT22;20233;50.804;7.126;2022-10-26T03:07:11;14.20;99.90
33955;DHT22;20233;50.804;7.126;2022-10-26T03:09:37;14.30;99.90
33955;DHT22;20233;50.804;7.126;2022-10-26T03:12:02;14.30;99.90
33955;DHT22;20233;50.804;7.126;2022-10-26T03:14:28;14.40;99.90
33955;DHT22;20233;50.804;7.126;2022-10-26T03:16:53;14.30;99.90
33955;DHT22;20233;50.804;7.126;2022-10-26T03:19:19;14.30;99.90
33955;DHT22;20233;50.804;7.126;2022-10-26T03:21:45;14.30;99.90
33955;DHT22;20233;50.804;7.126;2022-10-26T03:24:10;14.30;99.90
33955;DHT22;20233;50.804;7.126;2022-10-26T03:26:36;14.30;99.90
33955;DHT22;20233;50.804;7.126;2022-10-26T03:29:02;14.40;99.90
33955;DHT22;20233;50.804;7.126;2022-10-26T03:31:27;14.40;99.90
33955;DHT22;20233;50.804;7.126;2022-10-26T03:33:53;14.40;99.90
33955;DHT22;20233;50.804;7.126;2022-10-26T03:36:18;14.40;99.90
33955;DHT22;20233;50.804;7.126;2022-10-26T03:38:44;14.40;99.90
33955;DHT22;20233;50.804;7.126;2022-10-26T03:41:10;14.50;99.90
33955;DHT22;20233;50.804;7.126;2022-10-26T03:43:36;14.50;99.90
33955;DHT22;20233;50.804;7.126;2022-10-26T03:46:01;14.50;99.90
33955;DHT22;20233;50.804;7.126;2022-10-26T03:48:27;14.50;99.90
33955;DHT22;20233;50.804;7.126;2022-10-26T03:50:56;14.50;99.90
33955;DHT22;20233;50.804;7.126;2022-10-26T03:53:22;14.60;99.90
33955;DHT22;20233;50.804;7.126;2022-10-26T03:55:47;14.60;99.90
33955;DHT22;20233;50.804;7.126;2022-10-26T03:58:13;14.60;99.90
33955;DHT22;20233;50.804;7.126;2022-10-26T04:00:38;14.60;99.90
33955;DHT22;20233;50.804;7.126;2022-10-26T04:03:04;14.60;99.90
33955;DHT22;20233;50.804;7.126;2022-10-26T04:05:29;14.60;99.90
33955;DHT22;20233;50.804;7.126;2022-10-26T04:08:00;14.60;99.90
33955;DHT22;20233;50.804;7.126;2022-10-26T04:10:29;14.60;99.90
33955;DHT22;20233;50.804;7.126;2022-10-26T04:12:55;14.60;99.90
33955;DHT22;20233;50.804;7.126;2022-10-26T04:15:22;14.60;99.90
33955;DHT22;20233;50.804;7.126;2022-10-26T04:17:47;14.60;99.90
33955;DHT22;20233;50.804;7.126;2022-10-26T04:20:14;14.60;99.90
33955;DHT22;20233;50.804;7.126;2022-10-26T04:22:39;14.60;99.90
33955;DHT22;20233;50.804;7.126;2022-10-26T04:25:06;14.70;99.90
33955;DHT22;20233;50.804;7.126;2022-10-26T04:27:31;14.60;99.90
33955;DHT22;20233;50.804;7.126;2022-10-26T04:29:57;14.60;99.90
33955;DHT22;20233;50.804;7.126;2022-10-26T04:32:23;14.60;99.90
33955;DHT22;20233;50.804;7.126;2022-10-26T04:34:48;14.70;99.90
33955;DHT22;20233;50.804;7.126;2022-10-26T04:37:14;14.70;99.90
33955;DHT22;20233;50.804;7.126;2022-10-26T04:39:39;14.70;99.90
33955;DHT22;20233;50.804;7.126;2022-10-26T04:42:05;14.70;99.90
33955;DHT22;20233;50.804;7.126;2022-10-26T04:44:31;14.70;99.90
33955;DHT22;20233;50.804;7.126;2022-10-26T04:46:57;14.80;99.90
33955;DHT22;20233;50.804;7.126;2022-10-26T04:49:22;14.70;99.90
33955;DHT22;20233;50.804;7.126;2022-10-26T04:51:48;14.80;99.90
33955;DHT22;20233;50.804;7.126;2022-10-26T04:54:13;14.80;99.90
33955;DHT22;20233;50.804;7.126;2022-10-26T04:56:39;14.80;99.90
33955;DHT22;20233;50.804;7.126;2022-10-26T04:59:04;14.80;99.90
33955;DHT22;20233;50.804;7.126;2022-10-26T05:01:30;14.70;99.90
33955;DHT22;20233;50.804;7.126;2022-10-26T05:03:56;14.70;99.90
33955;DHT22;20233;50.804;7.126;2022-10-26T05:06:23;14.70;99.90
33955;DHT22;20233;50.804;7.126;2022-10-26T05:08:48;14.70;99.90
33955;DHT22;20233;50.804;7.126;2022-10-26T05:11:14;14.80;99.90
33955;DHT22;20233;50.804;7.126;2022-10-26T05:13:39;14.80;99.90
33955;DHT22;20233;50.804;7.126;2022-10-26T05:16:05;14.80;99.90
33955;DHT22;20233;50.804;7.126;2022-10-26T05:18:31;14.80;99.90
33955;DHT22;20233;50.804;7.126;2022-10-26T05:20:57;14.80;99.90
33955;DHT22;20233;50.804;7.126;2022-10-26T05:23:22;14.70;99.90
33955;DHT22;20233;50.804;7.126;2022-10-26T05:25:48;14.80;99.90
33955;DHT22;20233;50.804;7.126;2022-10-26T05:28:14;14.80;99.90
33955;DHT22;20233;50.804;7.126;2022-10-26T05:30:42;14.80;99.90
33955;DHT22;20233;50.804;7.126;2022-10-26T05:33:09;14.90;99.90
33955;DHT22;20233;50.804;7.126;2022-10-26T05:35:35;14.80;99.90
33955;DHT22;20233;50.804;7.126;2022-10-26T05:38:14;14.90;99.90
33955;DHT22;20233;50.804;7.126;2022-10-26T05:40:50;14.90;99.90
33955;DHT22;20233;50.804;7.126;2022-10-26T05:43:18;14.90;99.90
33955;DHT22;20233;50.804;7.126;2022-10-26T05:45:44;14.90;99.90
33955;DHT22;20233;50.804;7.126;2022-10-26T05:48:10;14.90;99.90
33955;DHT22;20233;50.804;7.126;2022-10-26T05:50:35;14.90;99.90
33955;DHT22;20233;50.804;7.126;2022-10-26T05:53:01;14.90;99.90
33955;DHT22;20233;50.804;7.126;2022-10-26T05:55:27;14.90;99.90
33955;DHT22;20233;50.804;7.126;2022-10-26T05:57:53;15.00;99.90
33955;DHT22;20233;50.804;7.126;2022-10-26T06:00:20;14.90;99.90
33955;DHT22;20233;50.804;7.126;2022-10-26T06:05:56;14.90;99.90
33955;DHT22;20233;50.804;7.126;2022-10-26T06:08:24;14.90;99.90
33955;DHT22;20233;50.804;7.126;2022-10-26T06:10:51;14.90;99.90
33955;DHT22;20233;50.804;7.126;2022-10-26T06:13:17;14.90;99.90
33955;DHT22;20233;50.804;7.126;2022-10-26T06:16:04;15.00;99.90
33955;DHT22;20233;50.804;7.126;2022-10-26T06:23:52;14.90;99.90
33955;DHT22;20233;50.804;7.126;2022-10-26T06:31:53;14.90;99.90
33955;DHT22;20233;50.804;7.126;2022-10-26T06:34:31;14.90;99.90
33955;DHT22;20233;50.804;7.126;2022-10-26T06:36:59;14.90;99.90
33955;DHT22;20233;50.804;7.126;2022-10-26T06:39:27;14.90;99.90
33955;DHT22;20233;50.804;7.126;2022-10-26T06:41:56;14.90;99.90
33955;DHT22;20233;50.804;7.126;2022-10-26T06:44:22;14.90;99.90
33955;DHT22;20233;50.804;7.126;2022-10-26T06:47:19;14.90;99.90
33955;DHT22;20233;50.804;7.126;2022-10-26T06:52:43;14.90;99.90
33955;DHT22;20233;50.804;7.126;2022-10-26T06:55:14;14.90;99.90
33955;DHT22;20233;50.804;7.126;2022-10-26T06:57:42;14.90;99.90
33955;DHT22;20233;50.804;7.126;2022-10-26T07:02:40;14.90;99.90
33955;DHT22;20233;50.804;7.126;2022-10-26T07:05:06;14.90;99.90
33955;DHT22;20233;50.804;7.126;2022-10-26T07:07:40;14.90;99.90
33955;DHT22;20233;50.804;7.126;2022-10-26T07:10:07;14.90;99.90
33955;DHT22;20233;50.804;7.126;2022-10-26T07:12:32;14.90;99.90
33955;DHT22;20233;50.804;7.126;2022-10-26T07:14:59;14.90;99.90
33955;DHT22;20233;50.804;7.126;2022-10-26T07:17:25;14.90;99.90
33955;DHT22;20233;50.804;7.126;2022-10-26T07:19:53;14.90;99.90
33955;DHT22;20233;50.804;7.126;2022-10-26T07:22:19;14.90;99.90
33955;DHT22;20233;50.804;7.126;2022-10-26T07:24:45;14.80;99.90
33955;DHT22;20233;50.804;7.126;2022-10-26T07:27:17;14.90;99.90
33955;DHT22;20233;50.804;7.126;2022-10-26T07:29:46;14.90;99.90
33955;DHT22;20233;50.804;7.126;2022-10-26T07:32:12;14.90;99.90
33955;DHT22;20233;50.804;7.126;2022-10-26T07:34:38;14.90;99.90
33955;DHT22;20233;50.804;7.126;2022-10-26T07:37:04;14.90;99.90
33955;DHT22;20233;50.804;7.126;2022-10-26T07:39:29;14.90;99.90
33955;DHT22;20233;50.804;7.126;2022-10-26T07:41:57;14.90;99.90
33955;DHT22;20233;50.804;7.126;2022-10-26T07:44:23;14.90;99.90
33955;DHT22;20233;50.804;7.126;2022-10-26T07:46:49;14.90;99.90
33955;DHT22;20233;50.804;7.126;2022-10-26T07:49:15;14.90;99.90
33955;DHT22;20233;50.804;7.126;2022-10-26T07:51:41;14.90;99.90
33955;DHT22;20233;50.804;7.126;2022-10-26T07:54:07;14.90;99.90
33955;DHT22;20233;50.804;7.126;2022-10-26T07:56:33;14.90;99.90
33955;DHT22;20233;50.804;7.126;2022-10-26T07:58:58;14.90;99.90
33955;DHT22;20233;50.804;7.126;2022-10-26T08:01:24;15.00;99.90
33955;DHT22;20233;50.804;7.126;2022-10-26T08:03:53;15.00;99.90
33955;DHT22;20233;50.804;7.126;2022-10-26T08:06:20;15.10;99.90
33955;DHT22;20233;50.804;7.126;2022-10-26T08:08:46;15.10;99.90
33955;DHT22;20233;50.804;7.126;2022-10-26T08:11:12;15.00;99.90
33955;DHT22;20233;50.804;7.126;2022-10-26T08:13:38;15.00;99.90
33955;DHT22;20233;50.804;7.126;2022-10-26T08:16:06;15.10;99.90
33955;DHT22;20233;50.804;7.126;2022-10-26T08:18:33;15.10;99.90
33955;DHT22;20233;50.804;7.126;2022-10-26T08:21:06;15.20;99.90
33955;DHT22;20233;50.804;7.126;2022-10-26T08:23:32;15.20;99.90
33955;DHT22;20233;50.804;7.126;2022-10-26T08:26:02;15.20;99.90
33955;DHT22;20233;50.804;7.126;2022-10-26T08:28:29;15.30;99.90
33955;DHT22;20233;50.804;7.126;2022-10-26T08:30:56;15.30;99.90
33955;DHT22;20233;50.804;7.126;2022-10-26T08:33:23;15.40;99.90
33955;DHT22;20233;50.804;7.126;2022-10-26T08:35:55;15.40;99.90
33955;DHT22;20233;50.804;7.126;2022-10-26T08:38:21;15.40;99.90
33955;DHT22;20233;50.804;7.126;2022-10-26T08:40:46;15.50;99.90
33955;DHT22;20233;50.804;7.126;2022-10-26T08:45:48;15.60;99.90
33955;DHT22;20233;50.804;7.126;2022-10-26T08:48:21;15.60;99.90
33955;DHT22;20233;50.804;7.126;2022-10-26T08:50:56;15.60;99.90
33955;DHT22;20233;50.804;7.126;2022-10-26T08:53:39;15.60;99.90
33955;DHT22;20233;50.804;7.126;2022-10-26T08:56:14;15.60;99.90
33955;DHT22;20233;50.804;7.126;2022-10-26T08:58:55;15.70;99.90
33955;DHT22;20233;50.804;7.126;2022-10-26T09:03:47;15.90;99.90
33955;DHT22;20233;50.804;7.126;2022-10-26T09:09:28;16.10;99.90
33955;DHT22;20233;50.804;7.126;2022-10-26T09:12:00;16.20;99.90
33955;DHT22;20233;50.804;7.126;2022-10-26T09:25:43;16.40;99.90
33955;DHT22;20233;50.804;7.126;2022-10-26T09:28:15;16.50;99.90
33955;DHT22;20233;50.804;7.126;2022-10-26T09:30:45;16.50;99.90
33955;DHT22;20233;50.804;7.126;2022-10-26T09:35:51;16.60;99.90
33955;DHT22;20233;50.804;7.126;2022-10-26T09:43:55;16.70;99.90
33955;DHT22;20233;50.804;7.126;2022-10-26T09:46:39;16.70;99.90
33955;DHT22;20233;50.804;7.126;2022-10-26T09:49:10;16.70;99.90
33955;DHT22;20233;50.804;7.126;2022-10-26T09:51:39;16.70;99.90
33955;DHT22;20233;50.804;7.126;2022-10-26T09:54:17;16.70;99.90
33955;DHT22;20233;50.804;7.126;2022-10-26T09:56:49;16.70;99.90
33955;DHT22;20233;50.804;7.126;2022-10-26T09:59:18;16.70;99.90
33955;DHT22;20233;50.804;7.126;2022-10-26T10:01:46;16.70;99.90
33955;DHT22;20233;50.804;7.126;2022-10-26T10:09:25;16.90;99.90
33955;DHT22;20233;50.804;7.126;2022-10-26T10:12:02;17.00;99.90
33955;DHT22;20233;50.804;7.126;2022-10-26T10:14:33;17.10;99.90
33955;DHT22;20233;50.804;7.126;2022-10-26T10:17:06;17.20;99.90
33955;DHT22;20233;50.804;7.126;2022-10-26T10:19:37;17.40;99.90
33955;DHT22;20233;50.804;7.126;2022-10-26T10:25:02;17.60;99.90
33955;DHT22;20233;50.804;7.126;2022-10-26T10:30:03;17.80;99.90
33955;DHT22;20233;50.804;7.126;2022-10-26T10:32:37;17.90;99.90
33955;DHT22;20233;50.804;7.126;2022-10-26T10:35:27;18.00;99.90
33955;DHT22;20233;50.804;7.126;2022-10-26T10:37:53;18.10;99.90
33955;DHT22;20233;50.804;7.126;2022-10-26T10:42:47;18.20;99.90
33955;DHT22;20233;50.804;7.126;2022-10-26T10:45:27;18.40;99.90
33955;DHT22;20233;50.804;7.126;2022-10-26T10:51:00;18.50;99.90
33955;DHT22;20233;50.804;7.126;2022-10-26T10:53:36;18.60;99.90
33955;DHT22;20233;50.804;7.126;2022-10-26T10:56:37;18.80;99.90
33955;DHT22;20233;50.804;7.126;2022-10-26T11:01:38;19.00;99.90
33955;DHT22;20233;50.804;7.126;2022-10-26T11:06:50;19.30;99.90
33955;DHT22;20233;50.804;7.126;2022-10-26T11:09:23;19.40;99.90
33955;DHT22;20233;50.804;7.126;2022-10-26T11:12:18;19.60;99.90
33955;DHT22;20233;50.804;7.126;2022-10-26T11:14:56;19.60;99.90
33955;DHT22;20233;50.804;7.126;2022-10-26T11:17:26;19.70;99.90
33955;DHT22;20233;50.804;7.126;2022-10-26T11:19:54;19.70;99.90
33955;DHT22;20233;50.804;7.126;2022-10-26T11:22:38;19.80;99.90
33955;DHT22;20233;50.804;7.126;2022-10-26T11:27:51;19.90;99.90
33955;DHT22;20233;50.804;7.126;2022-10-26T11:30:21;20.00;99.90
33955;DHT22;20233;50.804;7.126;2022-10-26T11:32:52;20.10;99.90
33955;DHT22;20233;50.804;7.126;2022-10-26T11:35:25;20.00;99.90
33955;DHT22;20233;50.804;7.126;2022-10-26T11:43:27;20.20;99.90
33955;DHT22;20233;50.804;7.126;2022-10-26T11:46:06;20.20;99.90
33955;DHT22;20233;50.804;7.126;2022-10-26T11:51:04;20.60;99.90
33955;DHT22;20233;50.804;7.126;2022-10-26T11:53:37;20.70;99.90
33955;DHT22;20233;50.804;7.126;2022-10-26T11:56:11;20.50;99.90
33955;DHT22;20233;50.804;7.126;2022-10-26T11:58:38;20.60;99.90
33955;DHT22;20233;50.804;7.126;2022-10-26T12:01:09;20.70;99.90
33955;DHT22;20233;50.804;7.126;2022-10-26T12:03:40;20.80;99.90
33955;DHT22;20233;50.804;7.126;2022-10-26T12:06:10;20.90;99.90
33955;DHT22;20233;50.804;7.126;2022-10-26T12:08:39;20.80;99.90
33955;DHT22;20233;50.804;7.126;2022-10-26T12:11:37;21.00;99.90
33955;DHT22;20233;50.804;7.126;2022-10-26T12:19:08;21.20;99.90
33955;DHT22;20233;50.804;7.126;2022-10-26T12:21:37;21.30;99.90
33955;DHT22;20233;50.804;7.126;2022-10-26T12:27:24;21.50;99.90
33955;DHT22;20233;50.804;7.126;2022-10-26T12:48:50;21.50;99.90
33955;DHT22;20233;50.804;7.126;2022-10-26T12:57:20;21.80;99.90
33955;DHT22;20233;50.804;7.126;2022-10-26T12:59:57;21.90;99.90
33955;DHT22;20233;50.804;7.126;2022-10-26T13:08:12;22.00;99.90
33955;DHT22;20233;50.804;7.126;2022-10-26T13:10:45;22.00;99.90
33955;DHT22;20233;50.804;7.126;2022-10-26T13:13:24;22.00;99.90
33955;DHT22;20233;50.804;7.126;2022-10-26T13:15:54;22.20;99.90
33955;DHT22;20233;50.804;7.126;2022-10-26T13:18:21;22.30;99.90
33955;DHT22;20233;50.804;7.126;2022-10-26T13:21:04;22.40;99.90
33955;DHT22;20233;50.804;7.126;2022-10-26T13:23:32;22.40;99.90
33955;DHT22;20233;50.804;7.126;2022-10-26T13:26:18;22.50;99.90
33955;DHT22;20233;50.804;7.126;2022-10-26T13:28:56;22.40;99.90
33955;DHT22;20233;50.804;7.126;2022-10-26T13:36:32;22.20;99.90
33955;DHT22;20233;50.804;7.126;2022-10-26T13:39:00;22.30;99.90
33955;DHT22;20233;50.804;7.126;2022-10-26T13:41:37;22.30;99.90
33955;DHT22;20233;50.804;7.126;2022-10-26T13:44:06;22.30;99.90
33955;DHT22;20233;50.804;7.126;2022-10-26T13:46:37;22.20;99.90
33955;DHT22;20233;50.804;7.126;2022-10-26T13:49:12;22.20;99.90
33955;DHT22;20233;50.804;7.126;2022-10-26T13:51:48;22.20;99.90
33955;DHT22;20233;50.804;7.126;2022-10-26T13:54:50;22.20;99.90
33955;DHT22;20233;50.804;7.126;2022-10-26T13:57:42;22.30;99.90
33955;DHT22;20233;50.804;7.126;2022-10-26T14:00:20;22.20;99.90
33955;DHT22;20233;50.804;7.126;2022-10-26T14:02:46;22.20;99.90
33955;DHT22;20233;50.804;7.126;2022-10-26T14:05:17;22.20;99.90
33955;DHT22;20233;50.804;7.126;2022-10-26T14:07:51;22.20;99.90
33955;DHT22;20233;50.804;7.126;2022-10-26T14:10:39;22.10;99.90
33955;DHT22;20233;50.804;7.126;2022-10-26T14:13:08;22.10;99.90
33955;DHT22;20233;50.804;7.126;2022-10-26T14:15:34;22.10;99.90
33955;DHT22;20233;50.804;7.126;2022-10-26T14:18:01;22.10;99.90
33955;DHT22;20233;50.804;7.126;2022-10-26T14:20:29;22.00;99.90
33955;DHT22;20233;50.804;7.126;2022-10-26T14:22:55;22.00;99.90
33955;DHT22;20233;50.804;7.126;2022-10-26T14:27:47;22.00;99.90
33955;DHT22;20233;50.804;7.126;2022-10-26T14:30:25;22.00;99.90
33955;DHT22;20233;50.804;7.126;2022-10-26T14:32:51;22.10;99.90
33955;DHT22;20233;50.804;7.126;2022-10-26T14:35:29;22.10;99.90
33955;DHT22;20233;50.804;7.126;2022-10-26T14:37:59;22.00;99.90
33955;DHT22;20233;50.804;7.126;2022-10-26T14:40:28;22.00;99.90
33955;DHT22;20233;50.804;7.126;2022-10-26T14:42:57;22.10;99.90
33955;DHT22;20233;50.804;7.126;2022-10-26T14:47:53;22.10;99.90
33955;DHT22;20233;50.804;7.126;2022-10-26T14:50:21;22.20;99.90
33955;DHT22;20233;50.804;7.126;2022-10-26T14:52:55;22.20;99.90
33955;DHT22;20233;50.804;7.126;2022-10-26T14:55:23;22.10;99.90
33955;DHT22;20233;50.804;7.126;2022-10-26T14:57:52;22.20;99.90
33955;DHT22;20233;50.804;7.126;2022-10-26T15:00:22;22.20;99.90
33955;DHT22;20233;50.804;7.126;2022-10-26T15:02:53;22.20;99.90
33955;DHT22;20233;50.804;7.126;2022-10-26T15:07:50;22.20;99.90
33955;DHT22;20233;50.804;7.126;2022-10-26T15:13:30;22.20;99.90
33955;DHT22;20233;50.804;7.126;2022-10-26T15:16:17;22.20;99.90
33955;DHT22;20233;50.804;7.126;2022-10-26T15:18:46;22.10;99.90
33955;DHT22;20233;50.804;7.126;2022-10-26T15:21:28;22.10;99.90
33955;DHT22;20233;50.804;7.126;2022-10-26T15:23:55;22.10;99.90
33955;DHT22;20233;50.804;7.126;2022-10-26T15:26:23;22.00;99.90
33955;DHT22;20233;50.804;7.126;2022-10-26T15:28:53;22.00;99.90
33955;DHT22;20233;50.804;7.126;2022-10-26T15:38:43;21.80;99.90
33955;DHT22;20233;50.804;7.126;2022-10-26T15:41:25;21.70;99.90
33955;DHT22;20233;50.804;7.126;2022-10-26T15:43:54;21.70;99.90
33955;DHT22;20233;50.804;7.126;2022-10-26T15:46:32;21.70;99.90
33955;DHT22;20233;50.804;7.126;2022-10-26T15:49:00;21.60;99.90
33955;DHT22;20233;50.804;7.126;2022-10-26T15:51:26;21.50;99.90
33955;DHT22;20233;50.804;7.126;2022-10-26T15:54:00;21.50;99.90
33955;DHT22;20233;50.804;7.126;2022-10-26T15:56:26;21.40;99.90
33955;DHT22;20233;50.804;7.126;2022-10-26T15:58:55;21.40;99.90
33955;DHT22;20233;50.804;7.126;2022-10-26T16:01:26;21.30;99.90
33955;DHT22;20233;50.804;7.126;2022-10-26T16:03:52;21.20;99.90
33955;DHT22;20233;50.804;7.126;2022-10-26T16:06:26;21.20;99.90
33955;DHT22;20233;50.804;7.126;2022-10-26T16:08:55;21.10;99.90
33955;DHT22;20233;50.804;7.126;2022-10-26T16:11:21;21.00;99.90
33955;DHT22;20233;50.804;7.126;2022-10-26T16:13:47;20.90;99.90
33955;DHT22;20233;50.804;7.126;2022-10-26T16:16:15;20.80;99.90
33955;DHT22;20233;50.804;7.126;2022-10-26T16:18:42;20.80;99.90
33955;DHT22;20233;50.804;7.126;2022-10-26T16:21:11;20.80;99.90
33955;DHT22;20233;50.804;7.126;2022-10-26T16:23:38;20.70;99.90
33955;DHT22;20233;50.804;7.126;2022-10-26T16:26:04;20.60;99.90
33955;DHT22;20233;50.804;7.126;2022-10-26T16:28:30;20.60;99.90
33955;DHT22;20233;50.804;7.126;2022-10-26T16:31:00;20.50;99.90
33955;DHT22;20233;50.804;7.126;2022-10-26T16:33:25;20.40;99.90
33955;DHT22;20233;50.804;7.126;2022-10-26T16:35:58;20.30;99.90
33955;DHT22;20233;50.804;7.126;2022-10-26T16:38:24;20.30;99.90
33955;DHT22;20233;50.804;7.126;2022-10-26T16:41:00;20.20;99.90
33955;DHT22;20233;50.804;7.126;2022-10-26T16:43:26;20.10;99.90
33955;DHT22;20233;50.804;7.126;2022-10-26T16:45:52;20.10;99.90
33955;DHT22;20233;50.804;7.126;2022-10-26T16:48:17;20.00;99.90
33955;DHT22;20233;50.804;7.126;2022-10-26T16:50:43;19.90;99.90
33955;DHT22;20233;50.804;7.126;2022-10-26T16:53:08;19.80;99.90
33955;DHT22;20233;50.804;7.126;2022-10-26T16:55:34;19.70;99.90
33955;DHT22;20233;50.804;7.126;2022-10-26T16:57:59;19.60;99.90
33955;DHT22;20233;50.804;7.126;2022-10-26T17:00:25;19.50;99.90
33955;DHT22;20233;50.804;7.126;2022-10-26T17:02:51;19.40;99.90
33955;DHT22;20233;50.804;7.126;2022-10-26T17:05:16;19.40;99.90
33955;DHT22;20233;50.804;7.126;2022-10-26T17:07:42;19.40;99.90
33955;DHT22;20233;50.804;7.126;2022-10-26T17:10:07;19.30;99.90
33955;DHT22;20233;50.804;7.126;2022-10-26T17:14:59;19.00;99.90
33955;DHT22;20233;50.804;7.126;2022-10-26T17:17:26;19.00;99.90
33955;DHT22;20233;50.804;7.126;2022-10-26T17:19:51;19.00;99.90
33955;DHT22;20233;50.804;7.126;2022-10-26T17:22:17;19.00;99.90
33955;DHT22;20233;50.804;7.126;2022-10-26T17:24:42;18.90;99.90
33955;DHT22;20233;50.804;7.126;2022-10-26T17:27:08;18.80;99.90
33955;DHT22;20233;50.804;7.126;2022-10-26T17:29:33;18.70;99.90
33955;DHT22;20233;50.804;7.126;2022-10-26T17:31:59;18.70;99.90
33955;DHT22;20233;50.804;7.126;2022-10-26T17:34:24;18.60;99.90
33955;DHT22;20233;50.804;7.126;2022-10-26T17:36:50;18.50;99.90
33955;DHT22;20233;50.804;7.126;2022-10-26T17:39:16;18.50;99.90
33955;DHT22;20233;50.804;7.126;2022-10-26T17:41:43;18.40;99.90
33955;DHT22;20233;50.804;7.126;2022-10-26T17:44:09;18.40;99.90
33955;DHT22;20233;50.804;7.126;2022-10-26T17:46:34;18.30;99.90
33955;DHT22;20233;50.804;7.126;2022-10-26T17:49:00;18.20;99.90
33955;DHT22;20233;50.804;7.126;2022-10-26T17:51:27;18.20;99.90
33955;DHT22;20233;50.804;7.126;2022-10-26T17:53:53;18.10;99.90
33955;DHT22;20233;50.804;7.126;2022-10-26T17:56:25;18.10;99.90
33955;DHT22;20233;50.804;7.126;2022-10-26T18:01:17;17.90;99.90
33955;DHT22;20233;50.804;7.126;2022-10-26T18:03:43;17.90;99.90
33955;DHT22;20233;50.804;7.126;2022-10-26T18:06:09;17.80;99.90
33955;DHT22;20233;50.804;7.126;2022-10-26T18:08:36;17.80;99.90
33955;DHT22;20233;50.804;7.126;2022-10-26T18:11:03;17.80;99.90
33955;DHT22;20233;50.804;7.126;2022-10-26T18:13:30;17.70;99.90
33955;DHT22;20233;50.804;7.126;2022-10-26T18:16:27;17.60;99.90
33955;DHT22;20233;50.804;7.126;2022-10-26T18:18:55;17.60;99.90
33955;DHT22;20233;50.804;7.126;2022-10-26T18:21:24;17.60;99.90
33955;DHT22;20233;50.804;7.126;2022-10-26T18:23:51;17.50;99.90
33955;DHT22;20233;50.804;7.126;2022-10-26T18:26:19;17.50;99.90
33955;DHT22;20233;50.804;7.126;2022-10-26T18:28:45;17.50;99.90
33955;DHT22;20233;50.804;7.126;2022-10-26T18:31:13;17.40;99.90
33955;DHT22;20233;50.804;7.126;2022-10-26T18:33:39;17.40;99.90
33955;DHT22;20233;50.804;7.126;2022-10-26T18:36:17;17.40;99.90
33955;DHT22;20233;50.804;7.126;2022-10-26T18:38:45;17.30;99.90
33955;DHT22;20233;50.804;7.126;2022-10-26T18:41:11;17.20;99.90
33955;DHT22;20233;50.804;7.126;2022-10-26T18:43:39;17.20;99.90
33955;DHT22;20233;50.804;7.126;2022-10-26T18:46:07;17.20;99.90